sensor_id;sensor_type;location;lat;lon;timestamp;P1;P2;P0
28026;PMS5003;15344;52.342;-1.290;2023-03-13T00:00:52;7;5;
28026;PMS5003;15344;52.342;-1.290;2023-03-13T00:03:17;5;4;
28026;PMS5003;15344;52.342;-1.290;2023-03-13T00:05:42;6;5;
28026;PMS5003;15344;52.342;-1.290;2023-03-13T00:08:07;8;5;
28026;PMS5003;15344;52.342;-1.290;2023-03-13T00:10:35;6;4;
28026;PMS5003;15344;52.342;-1.290;2023-03-13T00:12:58;6;4;
28026;PMS5003;15344;52.342;-1.290;2023-03-13T00:15:23;8;5;
28026;PMS5003;15344;52.342;-1.290;2023-03-13T00:17:48;7;6;
28026;PMS5003;15344;52.342;-1.290;2023-03-13T00:20:14;7;6;
28026;PMS5003;15344;52.342;-1.290;2023-03-13T00:22:39;6;4;
28026;PMS5003;15344;52.342;-1.290;2023-03-13T00:25:05;3;3;
28026;PMS5003;15344;52.342;-1.290;2023-03-13T00:27:31;5;3;
28026;PMS5003;15344;52.342;-1.290;2023-03-13T00:29:55;6;3;
28026;PMS5003;15344;52.342;-1.290;2023-03-13T00:32:21;1;1;
28026;PMS5003;15344;52.342;-1.290;2023-03-13T00:34:46;8;3;
28026;PMS5003;15344;52.342;-1.290;2023-03-13T00:37:11;6;3;
28026;PMS5003;15344;52.342;-1.290;2023-03-13T00:39:37;3;3;
28026;PMS5003;15344;52.342;-1.290;2023-03-13T00:42:02;3;3;
28026;PMS5003;15344;52.342;-1.290;2023-03-13T00:44:27;3;2;
28026;PMS5003;15344;52.342;-1.290;2023-03-13T00:46:52;3;2;
28026;PMS5003;15344;52.342;-1.290;2023-03-13T00:49:18;5;4;
28026;PMS5003;15344;52.342;-1.290;2023-03-13T00:51:43;4;4;
28026;PMS5003;15344;52.342;-1.290;2023-03-13T00:54:08;4;3;
28026;PMS5003;15344;52.342;-1.290;2023-03-13T00:56:34;3;3;
28026;PMS5003;15344;52.342;-1.290;2023-03-13T00:58:59;4;2;
28026;PMS5003;15344;52.342;-1.290;2023-03-13T01:01:25;4;2;
28026;PMS5003;15344;52.342;-1.290;2023-03-13T01:03:51;6;4;
28026;PMS5003;15344;52.342;-1.290;2023-03-13T01:06:16;4;3;
28026;PMS5003;15344;52.342;-1.290;2023-03-13T01:08:41;4;4;
28026;PMS5003;15344;52.342;-1.290;2023-03-13T01:11:07;7;4;
28026;PMS5003;15344;52.342;-1.290;2023-03-13T01:13:31;7;4;
28026;PMS5003;15344;52.342;-1.290;2023-03-13T01:15:57;4;2;
28026;PMS5003;15344;52.342;-1.290;2023-03-13T01:18:22;5;3;
28026;PMS5003;15344;52.342;-1.290;2023-03-13T01:20:47;4;3;
28026;PMS5003;15344;52.342;-1.290;2023-03-13T01:23:13;6;5;
28026;PMS5003;15344;52.342;-1.290;2023-03-13T01:25:38;4;3;
28026;PMS5003;15344;52.342;-1.290;2023-03-13T01:28:04;4;4;
28026;PMS5003;15344;52.342;-1.290;2023-03-13T01:30:29;5;4;
28026;PMS5003;15344;52.342;-1.290;2023-03-13T01:32:54;5;2;
28026;PMS5003;15344;52.342;-1.290;2023-03-13T01:35:20;4;4;
28026;PMS5003;15344;52.342;-1.290;2023-03-13T01:37:45;5;4;
28026;PMS5003;15344;52.342;-1.290;2023-03-13T01:40:11;4;4;
28026;PMS5003;15344;52.342;-1.290;2023-03-13T01:45:01;6;6;
28026;PMS5003;15344;52.342;-1.290;2023-03-13T01:47:27;4;2;
28026;PMS5003;15344;52.342;-1.290;2023-03-13T01:49:52;3;3;
28026;PMS5003;15344;52.342;-1.290;2023-03-13T01:52:18;4;3;
28026;PMS5003;15344;52.342;-1.290;2023-03-13T01:54:43;5;3;
28026;PMS5003;15344;52.342;-1.290;2023-03-13T01:57:09;3;3;
28026;PMS5003;15344;52.342;-1.290;2023-03-13T01:59:34;2;2;
28026;PMS5003;15344;52.342;-1.290;2023-03-13T02:01:59;8;4;
28026;PMS5003;15344;52.342;-1.290;2023-03-13T02:04:24;2;2;
28026;PMS5003;15344;52.342;-1.290;2023-03-13T02:06:50;2;2;
28026;PMS5003;15344;52.342;-1.290;2023-03-13T02:09:16;6;5;
28026;PMS5003;15344;52.342;-1.290;2023-03-13T02:11:43;4;3;
28026;PMS5003;15344;52.342;-1.290;2023-03-13T02:14:05;4;2;
28026;PMS5003;15344;52.342;-1.290;2023-03-13T02:16:31;5;3;
28026;PMS5003;15344;52.342;-1.290;2023-03-13T02:18:56;3;3;
28026;PMS5003;15344;52.342;-1.290;2023-03-13T02:21:26;3;3;
28026;PMS5003;15344;52.342;-1.290;2023-03-13T02:23:49;2;0;
28026;PMS5003;15344;52.342;-1.290;2023-03-13T02:26:12;5;2;
28026;PMS5003;15344;52.342;-1.290;2023-03-13T02:28:37;4;1;
28026;PMS5003;15344;52.342;-1.290;2023-03-13T02:31:03;0;0;
28026;PMS5003;15344;52.342;-1.290;2023-03-13T02:33:29;4;1;
28026;PMS5003;15344;52.342;-1.290;2023-03-13T02:35:53;2;0;
28026;PMS5003;15344;52.342;-1.290;2023-03-13T02:38:19;1;1;
28026;PMS5003;15344;52.342;-1.290;2023-03-13T02:40:44;1;1;
28026;PMS5003;15344;52.342;-1.290;2023-03-13T02:43:10;1;1;
28026;PMS5003;15344;52.342;-1.290;2023-03-13T02:45:34;0;0;
28026;PMS5003;15344;52.342;-1.290;2023-03-13T02:48:00;2;0;
28026;PMS5003;15344;52.342;-1.290;2023-03-13T02:50:25;1;1;
28026;PMS5003;15344;52.342;-1.290;2023-03-13T02:52:52;2;0;
28026;PMS5003;15344;52.342;-1.290;2023-03-13T02:55:17;0;0;
28026;PMS5003;15344;52.342;-1.290;2023-03-13T02:57:41;1;0;
28026;PMS5003;15344;52.342;-1.290;2023-03-13T03:00:07;0;0;
28026;PMS5003;15344;52.342;-1.290;2023-03-13T03:02:32;0;0;
28026;PMS5003;15344;52.342;-1.290;2023-03-13T03:04:57;0;0;
28026;PMS5003;15344;52.342;-1.290;2023-03-13T03:07:22;0;0;
28026;PMS5003;15344;52.342;-1.290;2023-03-13T03:09:47;1;0;
28026;PMS5003;15344;52.342;-1.290;2023-03-13T03:12:13;1;1;
28026;PMS5003;15344;52.342;-1.290;2023-03-13T03:14:39;1;1;
28026;PMS5003;15344;52.342;-1.290;2023-03-13T03:17:04;2;2;
28026;PMS5003;15344;52.342;-1.290;2023-03-13T03:19:29;4;1;
28026;PMS5003;15344;52.342;-1.290;2023-03-13T03:21:55;1;0;
28026;PMS5003;15344;52.342;-1.290;2023-03-13T03:24:20;3;2;
28026;PMS5003;15344;52.342;-1.290;2023-03-13T03:26:45;4;1;
28026;PMS5003;15344;52.342;-1.290;2023-03-13T03:29:10;1;1;
28026;PMS5003;15344;52.342;-1.290;2023-03-13T03:31:36;2;0;
28026;PMS5003;15344;52.342;-1.290;2023-03-13T03:34:01;2;2;
28026;PMS5003;15344;52.342;-1.290;2023-03-13T03:36:27;1;1;
28026;PMS5003;15344;52.342;-1.290;2023-03-13T03:38:52;0;0;
28026;PMS5003;15344;52.342;-1.290;2023-03-13T03:41:17;5;1;
28026;PMS5003;15344;52.342;-1.290;2023-03-13T03:43:43;0;0;
28026;PMS5003;15344;52.342;-1.290;2023-03-13T03:46:08;0;0;
28026;PMS5003;15344;52.342;-1.290;2023-03-13T03:48:33;1;0;
28026;PMS5003;15344;52.342;-1.290;2023-03-13T03:50:59;1;1;
28026;PMS5003;15344;52.342;-1.290;2023-03-13T03:53:24;1;0;
28026;PMS5003;15344;52.342;-1.290;2023-03-13T03:55:49;0;0;
28026;PMS5003;15344;52.342;-1.290;2023-03-13T03:58:14;0;0;
28026;PMS5003;15344;52.342;-1.290;2023-03-13T04:00:41;0;0;
28026;PMS5003;15344;52.342;-1.290;2023-03-13T04:03:05;0;0;
28026;PMS5003;15344;52.342;-1.290;2023-03-13T04:05:30;0;0;
28026;PMS5003;15344;52.342;-1.290;2023-03-13T04:07:55;1;1;
28026;PMS5003;15344;52.342;-1.290;2023-03-13T04:10:21;0;0;
28026;PMS5003;15344;52.342;-1.290;2023-03-13T04:12:46;1;0;
28026;PMS5003;15344;52.342;-1.290;2023-03-13T04:15:11;1;0;
28026;PMS5003;15344;52.342;-1.290;2023-03-13T04:17:37;0;0;
28026;PMS5003;15344;52.342;-1.290;2023-03-13T04:20:02;1;0;
28026;PMS5003;15344;52.342;-1.290;2023-03-13T04:22:27;0;0;
28026;PMS5003;15344;52.342;-1.290;2023-03-13T04:24:52;0;0;
28026;PMS5003;15344;52.342;-1.290;2023-03-13T04:27:18;0;0;
28026;PMS5003;15344;52.342;-1.290;2023-03-13T04:29:44;1;0;
28026;PMS5003;15344;52.342;-1.290;2023-03-13T04:32:09;2;0;
28026;PMS5003;15344;52.342;-1.290;2023-03-13T04:34:34;0;0;
28026;PMS5003;15344;52.342;-1.290;2023-03-13T04:37:00;0;0;
28026;PMS5003;15344;52.342;-1.290;2023-03-13T04:39:25;0;0;
28026;PMS5003;15344;52.342;-1.290;2023-03-13T04:41:50;0;0;
28026;PMS5003;15344;52.342;-1.290;2023-03-13T04:44:15;1;0;
28026;PMS5003;15344;52.342;-1.290;2023-03-13T04:46:41;2;1;
28026;PMS5003;15344;52.342;-1.290;2023-03-13T04:49:06;0;0;
28026;PMS5003;15344;52.342;-1.290;2023-03-13T04:51:31;0;0;
28026;PMS5003;15344;52.342;-1.290;2023-03-13T04:53:57;0;0;
28026;PMS5003;15344;52.342;-1.290;2023-03-13T04:56:23;0;0;
28026;PMS5003;15344;52.342;-1.290;2023-03-13T04:58:47;2;0;
28026;PMS5003;15344;52.342;-1.290;2023-03-13T05:01:13;2;0;
28026;PMS5003;15344;52.342;-1.290;2023-03-13T05:03:38;0;0;
28026;PMS5003;15344;52.342;-1.290;2023-03-13T05:06:04;1;1;
28026;PMS5003;15344;52.342;-1.290;2023-03-13T05:08:28;2;1;
28026;PMS5003;15344;52.342;-1.290;2023-03-13T05:10:54;3;1;
28026;PMS5003;15344;52.342;-1.290;2023-03-13T05:13:19;0;0;
28026;PMS5003;15344;52.342;-1.290;2023-03-13T05:15:45;1;1;
28026;PMS5003;15344;52.342;-1.290;2023-03-13T05:18:10;3;1;
28026;PMS5003;15344;52.342;-1.290;2023-03-13T05:20:35;0;0;
28026;PMS5003;15344;52.342;-1.290;2023-03-13T05:23:00;5;1;
28026;PMS5003;15344;52.342;-1.290;2023-03-13T05:25:26;2;0;
28026;PMS5003;15344;52.342;-1.290;2023-03-13T05:27:51;1;1;
28026;PMS5003;15344;52.342;-1.290;2023-03-13T05:30:16;1;1;
28026;PMS5003;15344;52.342;-1.290;2023-03-13T05:32:42;0;0;
28026;PMS5003;15344;52.342;-1.290;2023-03-13T05:35:07;2;2;
28026;PMS5003;15344;52.342;-1.290;2023-03-13T05:37:32;2;2;
28026;PMS5003;15344;52.342;-1.290;2023-03-13T05:39:58;0;0;
28026;PMS5003;15344;52.342;-1.290;2023-03-13T05:42:23;1;0;
28026;PMS5003;15344;52.342;-1.290;2023-03-13T05:44:49;1;1;
28026;PMS5003;15344;52.342;-1.290;2023-03-13T05:47:14;1;0;
28026;PMS5003;15344;52.342;-1.290;2023-03-13T05:49:40;6;2;
28026;PMS5003;15344;52.342;-1.290;2023-03-13T05:52:05;3;0;
28026;PMS5003;15344;52.342;-1.290;2023-03-13T05:54:30;6;3;
28026;PMS5003;15344;52.342;-1.290;2023-03-13T05:56:56;2;2;
28026;PMS5003;15344;52.342;-1.290;2023-03-13T05:59:21;6;1;
28026;PMS5003;15344;52.342;-1.290;2023-03-13T06:01:46;6;2;
28026;PMS5003;15344;52.342;-1.290;2023-03-13T06:04:12;7;2;
28026;PMS5003;15344;52.342;-1.290;2023-03-13T06:06:37;6;2;
28026;PMS5003;15344;52.342;-1.290;2023-03-13T06:09:02;4;2;
28026;PMS5003;15344;52.342;-1.290;2023-03-13T06:11:28;5;2;
28026;PMS5003;15344;52.342;-1.290;2023-03-13T06:13:53;5;1;
28026;PMS5003;15344;52.342;-1.290;2023-03-13T06:16:19;5;2;
28026;PMS5003;15344;52.342;-1.290;2023-03-13T06:18:44;3;3;
28026;PMS5003;15344;52.342;-1.290;2023-03-13T06:21:10;4;2;
28026;PMS5003;15344;52.342;-1.290;2023-03-13T06:23:35;9;1;
28026;PMS5003;15344;52.342;-1.290;2023-03-13T06:26:05;2;2;
28026;PMS5003;15344;52.342;-1.290;2023-03-13T06:28:26;5;4;
28026;PMS5003;15344;52.342;-1.290;2023-03-13T06:30:52;3;2;
28026;PMS5003;15344;52.342;-1.290;2023-03-13T06:33:17;6;3;
28026;PMS5003;15344;52.342;-1.290;2023-03-13T06:35:43;4;1;
28026;PMS5003;15344;52.342;-1.290;2023-03-13T06:38:08;11;7;
28026;PMS5003;15344;52.342;-1.290;2023-03-13T06:40:33;4;3;
28026;PMS5003;15344;52.342;-1.290;2023-03-13T06:42:59;6;3;
28026;PMS5003;15344;52.342;-1.290;2023-03-13T06:45:24;4;2;
28026;PMS5003;15344;52.342;-1.290;2023-03-13T06:47:49;10;3;
28026;PMS5003;15344;52.342;-1.290;2023-03-13T06:50:15;8;4;
28026;PMS5003;15344;52.342;-1.290;2023-03-13T06:52:40;3;2;
28026;PMS5003;15344;52.342;-1.290;2023-03-13T06:55:05;4;2;
28026;PMS5003;15344;52.342;-1.290;2023-03-13T06:57:30;10;6;
28026;PMS5003;15344;52.342;-1.290;2023-03-13T06:59:56;4;2;
28026;PMS5003;15344;52.342;-1.290;2023-03-13T07:02:21;4;3;
28026;PMS5003;15344;52.342;-1.290;2023-03-13T07:04:47;7;3;
28026;PMS5003;15344;52.342;-1.290;2023-03-13T07:07:12;5;1;
28026;PMS5003;15344;52.342;-1.290;2023-03-13T07:09:37;6;3;
28026;PMS5003;15344;52.342;-1.290;2023-03-13T07:12:03;8;3;
28026;PMS5003;15344;52.342;-1.290;2023-03-13T07:14:28;6;1;
28026;PMS5003;15344;52.342;-1.290;2023-03-13T07:16:54;8;3;
28026;PMS5003;15344;52.342;-1.290;2023-03-13T07:19:19;6;2;
28026;PMS5003;15344;52.342;-1.290;2023-03-13T07:21:44;6;2;
28026;PMS5003;15344;52.342;-1.290;2023-03-13T07:24:10;3;2;
28026;PMS5003;15344;52.342;-1.290;2023-03-13T07:26:35;2;1;
28026;PMS5003;15344;52.342;-1.290;2023-03-13T07:29:01;6;2;
28026;PMS5003;15344;52.342;-1.290;2023-03-13T07:31:26;11;2;
28026;PMS5003;15344;52.342;-1.290;2023-03-13T07:33:52;10;2;
28026;PMS5003;15344;52.342;-1.290;2023-03-13T07:36:18;2;2;
28026;PMS5003;15344;52.342;-1.290;2023-03-13T07:38:46;6;3;
28026;PMS5003;15344;52.342;-1.290;2023-03-13T07:41:09;6;2;
28026;PMS5003;15344;52.342;-1.290;2023-03-13T07:43:34;8;5;
28026;PMS5003;15344;52.342;-1.290;2023-03-13T07:46:00;7;4;
28026;PMS5003;15344;52.342;-1.290;2023-03-13T07:48:27;10;3;
28026;PMS5003;15344;52.342;-1.290;2023-03-13T07:50:50;5;2;
28026;PMS5003;15344;52.342;-1.290;2023-03-13T07:53:16;6;3;
28026;PMS5003;15344;52.342;-1.290;2023-03-13T07:55:41;10;4;
28026;PMS5003;15344;52.342;-1.290;2023-03-13T07:58:07;7;1;
28026;PMS5003;15344;52.342;-1.290;2023-03-13T08:00:32;7;4;
28026;PMS5003;15344;52.342;-1.290;2023-03-13T08:02:58;4;4;
28026;PMS5003;15344;52.342;-1.290;2023-03-13T08:05:23;8;3;
28026;PMS5003;15344;52.342;-1.290;2023-03-13T08:07:49;7;4;
28026;PMS5003;15344;52.342;-1.290;2023-03-13T08:10:14;8;2;
28026;PMS5003;15344;52.342;-1.290;2023-03-13T08:12:40;5;2;
28026;PMS5003;15344;52.342;-1.290;2023-03-13T08:15:06;7;3;
28026;PMS5003;15344;52.342;-1.290;2023-03-13T08:17:31;4;2;
28026;PMS5003;15344;52.342;-1.290;2023-03-13T08:19:56;5;1;
28026;PMS5003;15344;52.342;-1.290;2023-03-13T08:22:21;3;2;
28026;PMS5003;15344;52.342;-1.290;2023-03-13T08:24:47;4;3;
28026;PMS5003;15344;52.342;-1.290;2023-03-13T08:27:12;1;1;
28026;PMS5003;15344;52.342;-1.290;2023-03-13T08:29:37;4;2;
28026;PMS5003;15344;52.342;-1.290;2023-03-13T08:32:02;5;0;
28026;PMS5003;15344;52.342;-1.290;2023-03-13T08:34:28;7;3;
28026;PMS5003;15344;52.342;-1.290;2023-03-13T08:36:53;2;2;
28026;PMS5003;15344;52.342;-1.290;2023-03-13T08:39:19;3;3;
28026;PMS5003;15344;52.342;-1.290;2023-03-13T08:41:44;4;3;
28026;PMS5003;15344;52.342;-1.290;2023-03-13T08:44:10;10;3;
28026;PMS5003;15344;52.342;-1.290;2023-03-13T08:46:35;5;4;
28026;PMS5003;15344;52.342;-1.290;2023-03-13T08:49:01;4;1;
28026;PMS5003;15344;52.342;-1.290;2023-03-13T08:51:26;8;4;
28026;PMS5003;15344;52.342;-1.290;2023-03-13T08:53:51;7;2;
28026;PMS5003;15344;52.342;-1.290;2023-03-13T08:56:17;6;3;
28026;PMS5003;15344;52.342;-1.290;2023-03-13T08:58:42;6;5;
28026;PMS5003;15344;52.342;-1.290;2023-03-13T09:01:08;7;2;
28026;PMS5003;15344;52.342;-1.290;2023-03-13T09:03:33;3;3;
28026;PMS5003;15344;52.342;-1.290;2023-03-13T09:05:58;5;3;
28026;PMS5003;15344;52.342;-1.290;2023-03-13T09:08:24;3;3;
28026;PMS5003;15344;52.342;-1.290;2023-03-13T09:10:53;3;3;
28026;PMS5003;15344;52.342;-1.290;2023-03-13T09:13:14;13;2;
28026;PMS5003;15344;52.342;-1.290;2023-03-13T09:15:40;5;1;
28026;PMS5003;15344;52.342;-1.290;2023-03-13T09:18:05;4;1;
28026;PMS5003;15344;52.342;-1.290;2023-03-13T09:20:31;4;2;
28026;PMS5003;15344;52.342;-1.290;2023-03-13T09:22:56;5;3;
28026;PMS5003;15344;52.342;-1.290;2023-03-13T09:25:22;12;6;
28026;PMS5003;15344;52.342;-1.290;2023-03-13T09:27:47;7;2;
28026;PMS5003;15344;52.342;-1.290;2023-03-13T09:30:13;6;3;
28026;PMS5003;15344;52.342;-1.290;2023-03-13T09:32:38;10;4;
28026;PMS5003;15344;52.342;-1.290;2023-03-13T09:35:04;16;8;
28026;PMS5003;15344;52.342;-1.290;2023-03-13T09:37:29;7;4;
28026;PMS5003;15344;52.342;-1.290;2023-03-13T09:39:55;4;2;
28026;PMS5003;15344;52.342;-1.290;2023-03-13T09:42:21;7;1;
28026;PMS5003;15344;52.342;-1.290;2023-03-13T09:44:47;8;2;
28026;PMS5003;15344;52.342;-1.290;2023-03-13T09:47:11;1;1;
28026;PMS5003;15344;52.342;-1.290;2023-03-13T09:49:37;9;4;
28026;PMS5003;15344;52.342;-1.290;2023-03-13T09:52:04;6;4;
28026;PMS5003;15344;52.342;-1.290;2023-03-13T09:54:27;7;5;
28026;PMS5003;15344;52.342;-1.290;2023-03-13T09:56:53;6;4;
28026;PMS5003;15344;52.342;-1.290;2023-03-13T09:59:18;5;3;
28026;PMS5003;15344;52.342;-1.290;2023-03-13T10:01:43;5;4;
28026;PMS5003;15344;52.342;-1.290;2023-03-13T10:04:11;11;3;
28026;PMS5003;15344;52.342;-1.290;2023-03-13T10:06:35;9;3;
28026;PMS5003;15344;52.342;-1.290;2023-03-13T10:09:00;10;5;
28026;PMS5003;15344;52.342;-1.290;2023-03-13T10:11:26;13;5;
28026;PMS5003;15344;52.342;-1.290;2023-03-13T10:13:51;8;3;
28026;PMS5003;15344;52.342;-1.290;2023-03-13T10:16:17;2;2;
28026;PMS5003;15344;52.342;-1.290;2023-03-13T10:18:41;6;3;
28026;PMS5003;15344;52.342;-1.290;2023-03-13T10:21:11;12;3;
28026;PMS5003;15344;52.342;-1.290;2023-03-13T10:23:34;9;4;
28026;PMS5003;15344;52.342;-1.290;2023-03-13T10:25:57;7;4;
28026;PMS5003;15344;52.342;-1.290;2023-03-13T10:28:23;8;8;
28026;PMS5003;15344;52.342;-1.290;2023-03-13T10:30:49;8;5;
28026;PMS5003;15344;52.342;-1.290;2023-03-13T10:33:18;3;3;
28026;PMS5003;15344;52.342;-1.290;2023-03-13T10:35:39;15;5;
28026;PMS5003;15344;52.342;-1.290;2023-03-13T10:38:07;10;4;
28026;PMS5003;15344;52.342;-1.290;2023-03-13T10:40:29;7;5;
28026;PMS5003;15344;52.342;-1.290;2023-03-13T10:42:59;3;1;
28026;PMS5003;15344;52.342;-1.290;2023-03-13T10:45:21;8;4;
28026;PMS5003;15344;52.342;-1.290;2023-03-13T10:47:46;19;7;
28026;PMS5003;15344;52.342;-1.290;2023-03-13T10:50:15;10;6;
28026;PMS5003;15344;52.342;-1.290;2023-03-13T10:52:40;6;4;
28026;PMS5003;15344;52.342;-1.290;2023-03-13T10:55:01;5;4;
28026;PMS5003;15344;52.342;-1.290;2023-03-13T10:57:27;9;4;
28026;PMS5003;15344;52.342;-1.290;2023-03-13T10:59:51;7;3;
28026;PMS5003;15344;52.342;-1.290;2023-03-13T11:02:21;6;4;
28026;PMS5003;15344;52.342;-1.290;2023-03-13T11:04:41;5;1;
28026;PMS5003;15344;52.342;-1.290;2023-03-13T11:07:12;6;3;
28026;PMS5003;15344;52.342;-1.290;2023-03-13T11:09:33;6;2;
28026;PMS5003;15344;52.342;-1.290;2023-03-13T11:12:01;9;6;
28026;PMS5003;15344;52.342;-1.290;2023-03-13T11:14:23;9;4;
28026;PMS5003;15344;52.342;-1.290;2023-03-13T11:16:49;6;4;
28026;PMS5003;15344;52.342;-1.290;2023-03-13T11:19:21;11;6;
28026;PMS5003;15344;52.342;-1.290;2023-03-13T11:21:42;13;7;
28026;PMS5003;15344;52.342;-1.290;2023-03-13T11:24:06;20;6;
28026;PMS5003;15344;52.342;-1.290;2023-03-13T11:26:31;19;7;
28026;PMS5003;15344;52.342;-1.290;2023-03-13T11:28:57;14;7;
28026;PMS5003;15344;52.342;-1.290;2023-03-13T11:31:23;13;6;
28026;PMS5003;15344;52.342;-1.290;2023-03-13T11:33:48;9;4;
28026;PMS5003;15344;52.342;-1.290;2023-03-13T11:36:14;18;7;
28026;PMS5003;15344;52.342;-1.290;2023-03-13T11:38:39;8;5;
28026;PMS5003;15344;52.342;-1.290;2023-03-13T11:41:05;6;3;
28026;PMS5003;15344;52.342;-1.290;2023-03-13T11:43:31;9;5;
28026;PMS5003;15344;52.342;-1.290;2023-03-13T11:48:34;5;4;
28026;PMS5003;15344;52.342;-1.290;2023-03-13T11:50:45;9;4;
28026;PMS5003;15344;52.342;-1.290;2023-03-13T11:53:15;6;3;
28026;PMS5003;15344;52.342;-1.290;2023-03-13T11:55:37;6;5;
28026;PMS5003;15344;52.342;-1.290;2023-03-13T11:58:04;10;4;
28026;PMS5003;15344;52.342;-1.290;2023-03-13T12:00:28;6;3;
28026;PMS5003;15344;52.342;-1.290;2023-03-13T12:02:53;14;5;
28026;PMS5003;15344;52.342;-1.290;2023-03-13T12:05:17;18;5;
28026;PMS5003;15344;52.342;-1.290;2023-03-13T12:07:44;8;5;
28026;PMS5003;15344;52.342;-1.290;2023-03-13T12:10:09;7;3;
28026;PMS5003;15344;52.342;-1.290;2023-03-13T12:12:36;9;5;
28026;PMS5003;15344;52.342;-1.290;2023-03-13T12:15:01;8;4;
28026;PMS5003;15344;52.342;-1.290;2023-03-13T12:17:28;9;6;
28026;PMS5003;15344;52.342;-1.290;2023-03-13T12:19:51;6;4;
28026;PMS5003;15344;52.342;-1.290;2023-03-13T12:22:16;7;3;
28026;PMS5003;15344;52.342;-1.290;2023-03-13T12:24:43;12;5;
28026;PMS5003;15344;52.342;-1.290;2023-03-13T12:27:09;13;4;
28026;PMS5003;15344;52.342;-1.290;2023-03-13T12:29:37;8;5;
28026;PMS5003;15344;52.342;-1.290;2023-03-13T12:31:58;6;3;
28026;PMS5003;15344;52.342;-1.290;2023-03-13T12:34:25;6;4;
28026;PMS5003;15344;52.342;-1.290;2023-03-13T12:36:50;3;3;
28026;PMS5003;15344;52.342;-1.290;2023-03-13T12:39:19;9;4;
28026;PMS5003;15344;52.342;-1.290;2023-03-13T12:41:41;4;4;
28026;PMS5003;15344;52.342;-1.290;2023-03-13T12:44:06;8;4;
28026;PMS5003;15344;52.342;-1.290;2023-03-13T12:46:33;10;2;
28026;PMS5003;15344;52.342;-1.290;2023-03-13T12:49:00;7;3;
28026;PMS5003;15344;52.342;-1.290;2023-03-13T12:51:25;9;3;
28026;PMS5003;15344;52.342;-1.290;2023-03-13T12:56:15;10;4;
28026;PMS5003;15344;52.342;-1.290;2023-03-13T12:58:42;12;6;
28026;PMS5003;15344;52.342;-1.290;2023-03-13T13:01:03;3;3;
28026;PMS5003;15344;52.342;-1.290;2023-03-13T13:03:29;9;5;
28026;PMS5003;15344;52.342;-1.290;2023-03-13T13:05:58;2;2;
28026;PMS5003;15344;52.342;-1.290;2023-03-13T13:08:23;10;3;
28026;PMS5003;15344;52.342;-1.290;2023-03-13T13:10:45;5;4;
28026;PMS5003;15344;52.342;-1.290;2023-03-13T13:15:36;7;4;
28026;PMS5003;15344;52.342;-1.290;2023-03-13T13:18:09;3;2;
28026;PMS5003;15344;52.342;-1.290;2023-03-13T13:20:30;8;3;
28026;PMS5003;15344;52.342;-1.290;2023-03-13T13:22:52;9;4;
28026;PMS5003;15344;52.342;-1.290;2023-03-13T13:27:44;7;4;
28026;PMS5003;15344;52.342;-1.290;2023-03-13T13:32:39;7;3;
28026;PMS5003;15344;52.342;-1.290;2023-03-13T13:35:01;13;5;
28026;PMS5003;15344;52.342;-1.290;2023-03-13T13:37:25;5;3;
28026;PMS5003;15344;52.342;-1.290;2023-03-13T13:39:50;4;3;
28026;PMS5003;15344;52.342;-1.290;2023-03-13T13:47:18;7;4;
28026;PMS5003;15344;52.342;-1.290;2023-03-13T13:49:33;5;3;
28026;PMS5003;15344;52.342;-1.290;2023-03-13T13:56:48;8;2;
28026;PMS5003;15344;52.342;-1.290;2023-03-13T14:01:39;6;3;
28026;PMS5003;15344;52.342;-1.290;2023-03-13T14:04:06;7;4;
28026;PMS5003;15344;52.342;-1.290;2023-03-13T14:06:30;6;3;
28026;PMS5003;15344;52.342;-1.290;2023-03-13T14:08:55;9;5;
28026;PMS5003;15344;52.342;-1.290;2023-03-13T14:11:22;7;3;
28026;PMS5003;15344;52.342;-1.290;2023-03-13T14:13:45;3;2;
28026;PMS5003;15344;52.342;-1.290;2023-03-13T14:16:18;3;2;
28026;PMS5003;15344;52.342;-1.290;2023-03-13T14:18:36;7;3;
28026;PMS5003;15344;52.342;-1.290;2023-03-13T14:21:02;5;3;
28026;PMS5003;15344;52.342;-1.290;2023-03-13T14:23:28;7;2;
28026;PMS5003;15344;52.342;-1.290;2023-03-13T14:25:52;12;7;
28026;PMS5003;15344;52.342;-1.290;2023-03-13T14:28:18;8;3;
28026;PMS5003;15344;52.342;-1.290;2023-03-13T14:30:43;2;2;
28026;PMS5003;15344;52.342;-1.290;2023-03-13T14:33:08;4;2;
28026;PMS5003;15344;52.342;-1.290;2023-03-13T14:35:33;3;1;
28026;PMS5003;15344;52.342;-1.290;2023-03-13T14:38:00;2;2;
28026;PMS5003;15344;52.342;-1.290;2023-03-13T14:40:24;6;1;
28026;PMS5003;15344;52.342;-1.290;2023-03-13T14:42:49;7;2;
28026;PMS5003;15344;52.342;-1.290;2023-03-13T14:45:14;6;4;
28026;PMS5003;15344;52.342;-1.290;2023-03-13T14:47:39;11;3;
28026;PMS5003;15344;52.342;-1.290;2023-03-13T14:50:08;7;2;
28026;PMS5003;15344;52.342;-1.290;2023-03-13T14:52:30;4;1;
28026;PMS5003;15344;52.342;-1.290;2023-03-13T14:54:56;3;2;
28026;PMS5003;15344;52.342;-1.290;2023-03-13T14:57:21;5;3;
28026;PMS5003;15344;52.342;-1.290;2023-03-13T14:59:45;7;2;
28026;PMS5003;15344;52.342;-1.290;2023-03-13T15:02:13;2;0;
28026;PMS5003;15344;52.342;-1.290;2023-03-13T15:07:01;3;2;
28026;PMS5003;15344;52.342;-1.290;2023-03-13T15:09:27;5;2;
28026;PMS5003;15344;52.342;-1.290;2023-03-13T15:11:53;6;3;
28026;PMS5003;15344;52.342;-1.290;2023-03-13T15:16:43;10;2;
28026;PMS5003;15344;52.342;-1.290;2023-03-13T15:19:08;4;1;
28026;PMS5003;15344;52.342;-1.290;2023-03-13T15:21:33;6;3;
28026;PMS5003;15344;52.342;-1.290;2023-03-13T15:23:59;4;1;
28026;PMS5003;15344;52.342;-1.290;2023-03-13T15:26:24;4;2;
28026;PMS5003;15344;52.342;-1.290;2023-03-13T15:28:49;2;1;
28026;PMS5003;15344;52.342;-1.290;2023-03-13T15:31:15;2;2;
28026;PMS5003;15344;52.342;-1.290;2023-03-13T15:33:40;8;3;
28026;PMS5003;15344;52.342;-1.290;2023-03-13T15:36:05;4;3;
28026;PMS5003;15344;52.342;-1.290;2023-03-13T15:38:30;5;3;
28026;PMS5003;15344;52.342;-1.290;2023-03-13T15:40:56;9;4;
28026;PMS5003;15344;52.342;-1.290;2023-03-13T15:43:21;8;3;
28026;PMS5003;15344;52.342;-1.290;2023-03-13T15:45:47;5;3;
28026;PMS5003;15344;52.342;-1.290;2023-03-13T15:48:14;8;4;
28026;PMS5003;15344;52.342;-1.290;2023-03-13T15:50:37;8;3;
28026;PMS5003;15344;52.342;-1.290;2023-03-13T15:53:05;7;2;
28026;PMS5003;15344;52.342;-1.290;2023-03-13T15:55:28;4;2;
28026;PMS5003;15344;52.342;-1.290;2023-03-13T15:57:53;3;1;
28026;PMS5003;15344;52.342;-1.290;2023-03-13T16:00:19;5;2;
28026;PMS5003;15344;52.342;-1.290;2023-03-13T16:02:44;0;0;
28026;PMS5003;15344;52.342;-1.290;2023-03-13T16:05:09;7;4;
28026;PMS5003;15344;52.342;-1.290;2023-03-13T16:07:34;6;1;
28026;PMS5003;15344;52.342;-1.290;2023-03-13T16:09:59;1;1;
28026;PMS5003;15344;52.342;-1.290;2023-03-13T16:12:25;6;2;
28026;PMS5003;15344;52.342;-1.290;2023-03-13T16:14:50;4;2;
28026;PMS5003;15344;52.342;-1.290;2023-03-13T16:17:17;4;2;
28026;PMS5003;15344;52.342;-1.290;2023-03-13T16:19:41;2;1;
28026;PMS5003;15344;52.342;-1.290;2023-03-13T16:22:07;3;1;
28026;PMS5003;15344;52.342;-1.290;2023-03-13T16:24:33;12;3;
28026;PMS5003;15344;52.342;-1.290;2023-03-13T16:26:58;5;3;
28026;PMS5003;15344;52.342;-1.290;2023-03-13T16:29:23;3;1;
28026;PMS5003;15344;52.342;-1.290;2023-03-13T16:31:48;1;1;
28026;PMS5003;15344;52.342;-1.290;2023-03-13T16:34:14;10;3;
28026;PMS5003;15344;52.342;-1.290;2023-03-13T16:36:39;10;3;
28026;PMS5003;15344;52.342;-1.290;2023-03-13T16:39:05;9;4;
28026;PMS5003;15344;52.342;-1.290;2023-03-13T16:41:30;6;4;
28026;PMS5003;15344;52.342;-1.290;2023-03-13T16:43:55;8;4;
28026;PMS5003;15344;52.342;-1.290;2023-03-13T16:46:22;11;5;
28026;PMS5003;15344;52.342;-1.290;2023-03-13T16:48:47;10;2;
28026;PMS5003;15344;52.342;-1.290;2023-03-13T16:51:14;11;4;